createdAt,value
2022-12-11T00:00:53.121Z,101380.56
2022-12-11T00:03:20.300Z,101376.25
2022-12-11T00:05:47.516Z,101379.75
2022-12-11T00:08:16.011Z,101373.66
2022-12-11T00:10:50.288Z,101375.38
2022-12-11T00:13:17.477Z,101373.66
2022-12-11T00:15:44.550Z,101378.00
2022-12-11T00:18:14.707Z,101377.16
2022-12-11T00:20:41.886Z,101372.81
2022-12-11T00:23:09.253Z,101381.59
2022-12-11T00:25:40.799Z,101374.56
2022-12-11T00:28:07.898Z,101371.09
2022-12-11T00:30:34.963Z,101378.06
2022-12-11T00:33:02.019Z,101377.19
2022-12-11T00:35:29.139Z,101376.34
2022-12-11T00:37:56.255Z,101375.47
2022-12-11T00:40:23.406Z,101373.75
2022-12-11T00:42:50.454Z,101370.25
2022-12-11T00:45:17.567Z,101368.50
2022-12-11T00:47:44.620Z,101367.66
2022-12-11T00:50:12.241Z,101367.66
2022-12-11T00:52:40.617Z,101368.53
2022-12-11T00:55:08.230Z,101352.81
2022-12-11T00:57:36.000Z,101351.97
2022-12-11T01:00:06.987Z,101355.47
2022-12-11T01:02:35.203Z,101355.47
2022-12-11T01:05:02.336Z,101352.88
2022-12-11T01:07:29.458Z,101356.34
2022-12-11T01:10:15.167Z,101354.63
2022-12-11T01:12:42.265Z,101357.25
2022-12-11T01:15:10.092Z,101353.78
2022-12-11T01:17:37.483Z,101351.19
2022-12-11T01:20:05.924Z,101350.28
2022-12-11T01:22:33.023Z,101359.03
2022-12-11T01:25:00.143Z,101351.16
2022-12-11T01:27:27.311Z,101350.31
2022-12-11T01:29:54.379Z,101359.06
2022-12-11T01:32:21.674Z,101357.34
2022-12-11T01:34:48.875Z,101363.47
2022-12-11T01:37:16.260Z,101356.47
2022-12-11T01:39:43.326Z,101364.34
2022-12-11T01:42:18.306Z,101363.47
2022-12-11T01:44:45.275Z,101354.75
2022-12-11T01:47:12.448Z,101357.34
2022-12-11T01:49:41.959Z,101361.75
2022-12-11T01:52:16.514Z,101362.66
2022-12-11T01:54:44.177Z,101360.91
2022-12-11T01:57:14.176Z,101359.16
2022-12-11T01:59:45.413Z,101356.56
2022-12-11T02:02:30.869Z,101355.66
2022-12-11T02:04:58.004Z,101352.19
2022-12-11T02:07:25.203Z,101354.78
2022-12-11T02:09:52.296Z,101344.31
2022-12-11T02:12:32.001Z,101340.84
2022-12-11T02:15:17.683Z,101341.72
2022-12-11T02:18:08.618Z,101333.88
2022-12-11T02:20:51.444Z,101337.38
2022-12-11T02:23:39.065Z,101336.53
2022-12-11T02:26:21.131Z,101331.28
2022-12-11T02:29:01.079Z,101322.56
2022-12-11T02:31:43.479Z,101325.22
2022-12-11T02:34:43.535Z,101318.25
2022-12-11T02:37:18.764Z,101328.72
2022-12-11T02:39:47.637Z,101318.22
2022-12-11T02:42:18.700Z,101318.22
2022-12-11T02:44:49.194Z,101318.25
2022-12-11T02:47:19.173Z,101319.13
2022-12-11T02:49:50.517Z,101315.66
2022-12-11T02:52:22.777Z,101313.91
2022-12-11T02:54:53.607Z,101309.56
2022-12-11T02:57:39.955Z,101331.44
2022-12-11T03:00:09.405Z,101325.34
2022-12-11T03:02:38.311Z,101316.59
2022-12-11T03:05:06.077Z,101324.47
2022-12-11T03:07:37.122Z,101323.63
2022-12-11T03:10:08.111Z,101318.38
2022-12-11T03:12:40.243Z,101317.50
2022-12-11T03:15:13.950Z,101317.56
2022-12-11T03:18:26.299Z,101322.78
2022-12-11T03:21:27.215Z,101326.31
2022-12-11T03:24:15.717Z,101323.69
2022-12-11T03:26:56.006Z,101328.03
2022-12-11T03:29:35.623Z,101330.69
2022-12-11T03:32:30.257Z,101327.19
2022-12-11T03:35:13.973Z,101326.34
2022-12-11T03:37:42.828Z,101323.72
2022-12-11T03:40:18.112Z,101322.88
2022-12-11T03:42:50.899Z,101323.72
2022-12-11T03:45:21.139Z,101323.75
2022-12-11T03:47:49.494Z,101324.63
2022-12-11T03:50:19.554Z,101322.03
2022-12-11T03:52:48.250Z,101318.53
2022-12-11T03:55:17.792Z,101325.53
2022-12-11T03:57:45.326Z,101312.41
2022-12-11T04:00:17.847Z,101308.88
2022-12-11T04:03:09.677Z,101306.25
2022-12-11T04:05:46.167Z,101312.44
2022-12-11T04:08:14.086Z,101309.78
2022-12-11T04:10:41.951Z,101320.28
2022-12-11T04:13:10.004Z,101318.50
2022-12-11T04:15:38.169Z,101310.63
2022-12-11T04:18:35.538Z,101307.13
2022-12-11T04:21:21.331Z,101303.63
2022-12-11T04:24:06.920Z,101310.66
2022-12-11T04:26:33.995Z,101308.06
2022-12-11T04:29:01.111Z,101302.81
2022-12-11T04:31:29.821Z,101301.06
2022-12-11T04:33:57.000Z,101294.06
2022-12-11T04:36:24.611Z,101299.28
2022-12-11T04:38:51.739Z,101289.69
2022-12-11T04:41:19.070Z,101291.41
2022-12-11T04:43:46.319Z,101294.09
2022-12-11T04:46:20.757Z,101293.19
2022-12-11T04:48:53.799Z,101289.69
2022-12-11T04:51:22.884Z,101287.06
2022-12-11T04:53:50.004Z,101280.91
2022-12-11T04:56:17.276Z,101281.81
2022-12-11T04:58:45.524Z,101287.06
2022-12-11T05:01:16.501Z,101288.81
2022-12-11T05:03:43.811Z,101283.53
2022-12-11T05:06:11.822Z,101295.78
2022-12-11T05:08:41.253Z,101295.78
2022-12-11T05:11:12.299Z,101299.25
2022-12-11T05:13:39.615Z,101301.91
2022-12-11T05:16:10.705Z,101305.38
2022-12-11T05:18:37.883Z,101296.63
2022-12-11T05:21:09.969Z,101299.28
2022-12-11T05:23:37.701Z,101299.28
2022-12-11T05:26:18.263Z,101295.78
2022-12-11T05:28:46.802Z,101294.91
2022-12-11T05:31:17.681Z,101294.91
2022-12-11T05:33:46.229Z,101289.63
2022-12-11T05:36:23.438Z,101284.41
2022-12-11T05:38:51.782Z,101278.31
2022-12-11T05:41:21.743Z,101279.16
2022-12-11T05:43:49.187Z,101280.03
2022-12-11T05:46:23.095Z,101280.03
2022-12-11T05:48:54.265Z,101279.94
2022-12-11T05:51:21.636Z,101278.19
2022-12-11T05:53:51.716Z,101278.25
2022-12-11T05:56:28.793Z,101282.59
2022-12-11T05:58:57.014Z,101283.47
2022-12-11T06:01:29.439Z,101286.09
2022-12-11T06:03:57.863Z,101280.78
2022-12-11T06:06:26.615Z,101269.50
2022-12-11T06:08:55.850Z,101270.31
2022-12-11T06:11:24.526Z,101265.94
2022-12-11T06:13:52.613Z,101277.28
2022-12-11T06:16:20.480Z,101271.19
2022-12-11T06:18:48.366Z,101279.94
2022-12-11T06:21:29.832Z,101270.31
2022-12-11T06:23:59.510Z,101271.16
2022-12-11T06:26:27.196Z,101271.16
2022-12-11T06:28:54.570Z,101274.63
2022-12-11T06:31:22.075Z,101274.66
2022-12-11T06:33:49.461Z,101272.91
2022-12-11T06:36:23.872Z,101276.38
2022-12-11T06:38:51.887Z,101281.66
2022-12-11T06:41:19.284Z,101271.16
2022-12-11T06:43:46.535Z,101278.09
2022-12-11T06:46:19.668Z,101279.94
2022-12-11T06:48:48.149Z,101286.88
2022-12-11T06:51:19.006Z,101288.66
2022-12-11T06:53:54.607Z,101292.19
2022-12-11T06:56:22.623Z,101297.38
2022-12-11T06:58:49.979Z,101293.00
2022-12-11T07:01:28.486Z,101296.44
2022-12-11T07:04:00.114Z,101290.34
2022-12-11T07:06:28.867Z,101293.88
2022-12-11T07:08:56.842Z,101292.16
2022-12-11T07:11:24.304Z,101293.00
2022-12-11T07:13:51.728Z,101294.72
2022-12-11T07:16:19.589Z,101302.59
2022-12-11T07:18:52.203Z,101300.75
2022-12-11T07:21:21.038Z,101294.72
2022-12-11T07:23:49.455Z,101293.78
2022-12-11T07:26:20.279Z,101299.03
2022-12-11T07:28:47.706Z,101297.25
2022-12-11T07:31:23.196Z,101305.16
2022-12-11T07:34:05.022Z,101301.66
2022-12-11T07:36:33.247Z,101300.81
2022-12-11T07:39:01.562Z,101307.78
2022-12-11T07:41:28.860Z,101310.44
2022-12-11T07:43:56.894Z,101312.97
2022-12-11T07:46:27.446Z,101309.56
2022-12-11T07:48:54.980Z,101305.13
2022-12-11T07:51:32.068Z,101307.75
2022-12-11T07:54:02.934Z,101309.47
2022-12-11T07:56:31.280Z,101312.13
2022-12-11T07:59:04.155Z,101323.50
2022-12-11T08:01:35.517Z,101318.28
2022-12-11T08:04:05.140Z,101323.47
2022-12-11T08:06:36.019Z,101318.22
2022-12-11T08:09:07.661Z,101321.72
2022-12-11T08:11:35.651Z,101319.06
2022-12-11T08:14:03.512Z,101322.59
2022-12-11T08:16:30.750Z,101319.09
2022-12-11T08:18:58.596Z,101320.81
2022-12-11T08:21:27.700Z,101310.34
2022-12-11T08:23:55.465Z,101321.69
2022-12-11T08:26:27.408Z,101314.75
2022-12-11T08:28:55.339Z,101316.44
2022-12-11T08:31:23.155Z,101327.81
2022-12-11T08:33:51.285Z,101322.56
2022-12-11T08:36:21.270Z,101325.13
2022-12-11T08:38:50.664Z,101319.88
2022-12-11T08:41:27.980Z,101318.16
2022-12-11T08:43:57.430Z,101322.53
2022-12-11T08:46:28.401Z,101325.16
2022-12-11T08:48:56.710Z,101319.88
2022-12-11T08:51:26.889Z,101322.47
2022-12-11T08:53:59.677Z,101318.97
2022-12-11T08:56:29.146Z,101314.63
2022-12-11T08:58:56.318Z,101313.75
2022-12-11T09:01:26.342Z,101313.75
2022-12-11T09:03:55.567Z,101312.84
2022-12-11T09:06:26.329Z,101311.16
2022-12-11T09:08:55.942Z,101318.97
2022-12-11T09:11:27.301Z,101305.88
2022-12-11T09:13:54.963Z,101306.69
2022-12-11T09:16:25.143Z,101310.25
2022-12-11T09:18:54.979Z,101301.56
2022-12-11T09:21:25.887Z,101292.00
2022-12-11T09:23:55.630Z,101292.94
2022-12-11T09:26:23.509Z,101295.53
2022-12-11T09:28:53.734Z,101296.50
2022-12-11T09:31:24.929Z,101296.44
2022-12-11T09:33:56.664Z,101295.63
2022-12-11T09:36:24.739Z,101296.53
2022-12-11T09:38:52.029Z,101293.88
2022-12-11T09:41:21.825Z,101301.72
2022-12-11T09:44:15.895Z,101298.28
2022-12-11T09:46:43.973Z,101294.84
2022-12-11T09:49:34.369Z,101295.75
2022-12-11T09:52:22.746Z,101283.47
2022-12-11T09:55:24.121Z,101284.44
2022-12-11T09:58:06.930Z,101287.97
2022-12-11T10:00:54.799Z,101292.38
2022-12-11T10:04:06.260Z,101286.22
2022-12-11T10:06:43.560Z,101289.78
2022-12-11T10:09:47.274Z,101288.97
2022-12-11T10:12:42.343Z,101286.31
2022-12-11T10:16:01.904Z,101288.97
2022-12-11T10:18:31.931Z,101289.84
2022-12-11T10:21:02.785Z,101283.72
2022-12-11T10:23:41.228Z,101283.72
2022-12-11T10:26:13.173Z,101280.34
2022-12-11T10:28:40.407Z,101283.00
2022-12-11T10:31:19.515Z,101278.63
2022-12-11T10:34:19.131Z,101281.25
2022-12-11T10:36:46.231Z,101281.22
2022-12-11T10:39:17.194Z,101278.59
2022-12-11T10:41:50.903Z,101275.13
2022-12-11T10:44:31.959Z,101278.63
2022-12-11T10:47:10.350Z,101270.81
2022-12-11T10:49:42.515Z,101279.50
2022-12-11T10:52:24.752Z,101281.22
2022-12-11T10:55:06.454Z,101267.34
2022-12-11T10:57:39.179Z,101265.59
2022-12-11T11:00:34.066Z,101260.41
2022-12-11T11:03:04.021Z,101263.84
2022-12-11T11:05:35.224Z,101264.75
2022-12-11T11:08:22.481Z,101263.06
2022-12-11T11:10:58.154Z,101263.03
2022-12-11T11:13:28.731Z,101259.56
2022-12-11T11:16:05.523Z,101258.66
2022-12-11T11:18:33.754Z,101253.50
2022-12-11T11:21:01.471Z,101251.72
2022-12-11T11:23:29.526Z,101253.53
2022-12-11T11:26:07.855Z,101239.50
2022-12-11T11:28:39.502Z,101241.25
2022-12-11T11:31:13.683Z,101242.13
2022-12-11T11:34:22.065Z,101236.91
2022-12-11T11:37:05.417Z,101240.41
2022-12-11T11:39:40.651Z,101242.16
2022-12-11T11:42:13.277Z,101243.06
2022-12-11T11:45:12.051Z,101235.16
2022-12-11T11:48:03.131Z,101243.06
2022-12-11T11:50:36.621Z,101235.19
2022-12-11T11:53:18.053Z,101228.19
2022-12-11T11:56:10.860Z,101223.84
2022-12-11T11:58:49.644Z,101224.72
2022-12-11T12:01:19.977Z,101222.97
2022-12-11T12:03:48.877Z,101232.59
2022-12-11T12:06:46.018Z,101223.84
2022-12-11T12:09:34.041Z,101223.88
2022-12-11T12:12:31.026Z,101225.59
2022-12-11T12:15:41.507Z,101224.72
2022-12-11T12:19:11.731Z,101222.13
2022-12-11T12:21:39.228Z,101221.19
2022-12-11T12:24:26.646Z,101223.00
2022-12-11T12:27:02.252Z,101218.63
2022-12-11T12:30:15.011Z,101221.25
2022-12-11T12:33:03.157Z,101209.88
2022-12-11T12:35:44.871Z,101223.00
2022-12-11T12:38:23.621Z,101220.44
2022-12-11T12:41:19.723Z,101222.16
2022-12-11T12:44:05.670Z,101223.00
2022-12-11T12:47:08.867Z,101214.25
2022-12-11T12:49:51.539Z,101209.03
2022-12-11T12:52:35.432Z,101216.88
2022-12-11T12:55:23.670Z,101208.97
2022-12-11T12:58:01.675Z,101213.41
2022-12-11T13:00:42.368Z,101214.22
2022-12-11T13:03:20.210Z,101216.84
2022-12-11T13:06:09.050Z,101205.53
2022-12-11T13:08:47.433Z,101210.75
2022-12-11T13:11:18.274Z,101208.13
2022-12-11T13:14:07.267Z,101216.84
2022-12-11T13:16:44.481Z,101213.34
2022-12-11T13:19:23.442Z,101220.38
2022-12-11T13:22:03.421Z,101214.22
2022-12-11T13:24:33.785Z,101218.59
2022-12-11T13:27:41.640Z,101216.88
2022-12-11T13:30:14.795Z,101216.84
2022-12-11T13:32:49.988Z,101217.72
2022-12-11T13:35:18.730Z,101217.72
2022-12-11T13:37:49.620Z,101222.97
2022-12-11T13:40:24.812Z,101222.03
2022-12-11T13:43:08.497Z,101222.94
2022-12-11T13:45:52.552Z,101221.22
2022-12-11T13:48:28.847Z,101223.81
2022-12-11T13:50:58.229Z,101222.94
2022-12-11T13:53:25.383Z,101222.06
2022-12-11T13:56:06.238Z,101217.69
2022-12-11T13:58:39.854Z,101223.81
2022-12-11T14:01:41.436Z,101220.31
2022-12-11T14:04:14.471Z,101228.19
2022-12-11T14:06:41.813Z,101232.56
2022-12-11T14:09:09.734Z,101231.69
2022-12-11T14:11:41.080Z,101241.25
2022-12-11T14:14:56.809Z,101233.41
2022-12-11T14:17:31.690Z,101224.63
2022-12-11T14:20:03.437Z,101229.88
2022-12-11T14:22:31.000Z,101228.16
2022-12-11T14:25:03.596Z,101235.13
2022-12-11T14:27:31.335Z,101224.59
2022-12-11T14:29:58.463Z,101233.38
2022-12-11T14:32:32.493Z,101228.94
2022-12-11T14:35:04.425Z,101226.38
2022-12-11T14:37:32.479Z,101230.72
2022-12-11T14:40:14.603Z,101228.09
2022-12-11T14:42:48.204Z,101228.97
2022-12-11T14:45:31.133Z,101227.25
2022-12-11T14:48:00.008Z,101223.69
2022-12-11T14:50:38.368Z,101229.88
2022-12-11T14:53:16.130Z,101225.50
2022-12-11T14:55:43.451Z,101222.84
2022-12-11T14:58:22.720Z,101229.84
2022-12-11T15:01:06.928Z,101226.31
2022-12-11T15:03:39.748Z,101228.09
2022-12-11T15:06:35.776Z,101234.13
2022-12-11T15:09:28.789Z,101234.97
2022-12-11T15:11:59.622Z,101239.41
2022-12-11T15:14:27.307Z,101237.69
2022-12-11T15:16:57.741Z,101239.38
2022-12-11T15:19:35.185Z,101239.44
2022-12-11T15:22:06.991Z,101238.53
2022-12-11T15:24:41.868Z,101240.28
2022-12-11T15:27:32.444Z,101248.16
2022-12-11T15:29:59.940Z,101240.22
2022-12-11T15:32:27.375Z,101238.53
2022-12-11T15:35:00.170Z,101241.16
2022-12-11T15:37:31.528Z,101243.78
2022-12-11T15:40:01.565Z,101249.94
2022-12-11T15:42:36.975Z,101249.03
2022-12-11T15:45:07.797Z,101249.03
2022-12-11T15:47:34.903Z,101257.72
2022-12-11T15:50:16.401Z,101257.69
2022-12-11T15:52:44.158Z,101257.72
2022-12-11T15:55:12.095Z,101255.94
2022-12-11T15:57:47.927Z,101255.09
2022-12-11T16:00:18.653Z,101257.72
2022-12-11T16:02:47.290Z,101261.22
2022-12-11T16:05:15.082Z,101266.47
2022-12-11T16:07:43.037Z,101261.22
2022-12-11T16:10:16.014Z,101261.22
2022-12-11T16:12:43.348Z,101255.97
2022-12-11T16:15:14.364Z,101255.97
2022-12-11T16:17:43.504Z,101262.13
2022-12-11T16:20:13.375Z,101258.56
2022-12-11T16:22:40.815Z,101256.84
2022-12-11T16:25:08.145Z,101253.31
2022-12-11T16:27:35.249Z,101257.72
2022-12-11T16:30:02.398Z,101256.81
2022-12-11T16:32:29.499Z,101259.41
2022-12-11T16:35:00.999Z,101253.28
2022-12-11T16:37:28.804Z,101254.22
2022-12-11T16:39:56.109Z,101257.69
2022-12-11T16:42:23.198Z,101256.78
2022-12-11T16:44:50.244Z,101256.75
2022-12-11T16:47:17.363Z,101260.25
2022-12-11T16:49:44.461Z,101256.72
2022-12-11T16:52:11.599Z,101262.00
2022-12-11T16:54:38.795Z,101258.47
2022-12-11T16:57:05.839Z,101255.00
2022-12-11T16:59:37.240Z,101248.00
2022-12-11T17:02:05.235Z,101254.13
2022-12-11T17:04:32.604Z,101248.88
2022-12-11T17:06:59.661Z,101253.22
2022-12-11T17:09:26.717Z,101245.34
2022-12-11T17:11:53.854Z,101251.47
2022-12-11T17:14:20.983Z,101250.63
2022-12-11T17:16:48.301Z,101254.97
2022-12-11T17:19:16.645Z,101252.34
2022-12-11T17:21:49.913Z,101254.13
2022-12-11T17:24:18.484Z,101245.34
2022-12-11T17:26:45.669Z,101251.47
2022-12-11T17:29:13.644Z,101246.28
2022-12-11T17:31:40.946Z,101252.34
2022-12-11T17:34:08.103Z,101250.63
2022-12-11T17:36:35.415Z,101254.13
2022-12-11T17:39:04.153Z,101252.34
2022-12-11T17:41:31.275Z,101258.50
2022-12-11T17:43:58.423Z,101252.38
2022-12-11T17:46:25.650Z,101257.50
2022-12-11T17:48:52.798Z,101251.47
2022-12-11T17:51:23.688Z,101253.25
2022-12-11T17:53:53.023Z,101255.78
2022-12-11T17:56:20.190Z,101258.47
2022-12-11T17:58:47.398Z,101262.78
2022-12-11T18:01:14.735Z,101261.06
2022-12-11T18:03:42.270Z,101261.03
2022-12-11T18:06:14.485Z,101261.03
2022-12-11T18:08:42.656Z,101265.44
2022-12-11T18:11:18.430Z,101261.06
2022-12-11T18:13:47.276Z,101264.59
2022-12-11T18:16:20.346Z,101259.34
2022-12-11T18:18:48.759Z,101268.09
2022-12-11T18:21:19.836Z,101265.44
2022-12-11T18:23:47.695Z,101265.44
2022-12-11T18:26:14.818Z,101264.59
2022-12-11T18:28:43.455Z,101269.81
2022-12-11T18:31:11.076Z,101268.91
2022-12-11T18:33:39.787Z,101260.16
2022-12-11T18:36:07.896Z,101266.28
2022-12-11T18:38:35.167Z,101268.03
2022-12-11T18:41:09.036Z,101267.16
2022-12-11T18:43:36.859Z,101277.66
2022-12-11T18:46:10.256Z,101269.78
2022-12-11T18:48:37.957Z,101276.75
2022-12-11T18:51:12.368Z,101274.09
2022-12-11T18:53:40.284Z,101276.72
2022-12-11T18:56:14.300Z,101273.22
2022-12-11T18:58:41.783Z,101281.09
2022-12-11T19:01:12.079Z,101277.56
2022-12-11T19:03:39.520Z,101275.81
2022-12-11T19:06:13.172Z,101268.78
2022-12-11T19:08:41.020Z,101273.13
2022-12-11T19:11:09.019Z,101267.00
2022-12-11T19:13:36.342Z,101261.78
2022-12-11T19:16:03.704Z,101269.63
2022-12-11T19:18:30.871Z,101264.31
2022-12-11T19:21:06.718Z,101274.88
2022-12-11T19:23:36.085Z,101272.19
2022-12-11T19:26:03.733Z,101274.81
2022-12-11T19:28:33.788Z,101271.31
2022-12-11T19:31:00.901Z,101273.03
2022-12-11T19:33:28.038Z,101260.78
2022-12-11T19:36:07.712Z,101271.19
2022-12-11T19:38:34.804Z,101269.50
2022-12-11T19:41:06.909Z,101263.41
2022-12-11T19:43:35.948Z,101273.00
2022-12-11T19:46:08.767Z,101276.47
2022-12-11T19:48:41.329Z,101272.06
2022-12-11T19:51:18.146Z,101269.44
2022-12-11T19:53:47.809Z,101274.66
2022-12-11T19:56:16.316Z,101282.53
2022-12-11T19:58:43.934Z,101273.81
2022-12-11T20:01:24.755Z,101274.66
2022-12-11T20:03:53.542Z,101275.56
2022-12-11T20:06:21.288Z,101271.09
2022-12-11T20:08:49.262Z,101278.09
2022-12-11T20:11:18.911Z,101284.16
2022-12-11T20:13:50.898Z,101285.97
2022-12-11T20:16:33.372Z,101285.16
2022-12-11T20:19:08.224Z,101287.72
2022-12-11T20:21:35.308Z,101279.00
2022-12-11T20:24:02.363Z,101281.56
2022-12-11T20:26:31.774Z,101279.00
2022-12-11T20:28:58.826Z,101286.81
2022-12-11T20:31:26.839Z,101289.47
2022-12-11T20:33:56.388Z,101283.38
2022-12-11T20:36:25.202Z,101284.28
2022-12-11T20:38:53.245Z,101289.50
2022-12-11T20:41:23.720Z,101287.72
2022-12-11T20:43:53.871Z,101285.03
2022-12-11T20:46:25.036Z,101287.66
2022-12-11T20:48:54.144Z,101288.56
2022-12-11T20:51:26.251Z,101285.03
2022-12-11T20:53:58.924Z,101290.34
2022-12-11T20:56:30.173Z,101291.22
2022-12-11T20:58:58.858Z,101296.47
2022-12-11T21:01:28.860Z,101297.38
2022-12-11T21:03:56.303Z,101296.38
2022-12-11T21:06:31.027Z,101294.72
2022-12-11T21:09:01.000Z,101291.19
2022-12-11T21:11:28.243Z,101291.16
2022-12-11T21:13:55.456Z,101292.94
2022-12-11T21:16:22.829Z,101289.41
2022-12-11T21:18:50.051Z,101294.69
2022-12-11T21:21:17.664Z,101299.88
2022-12-11T21:23:45.216Z,101300.75
2022-12-11T21:26:13.174Z,101297.28
2022-12-11T21:28:40.424Z,101289.44
2022-12-11T21:31:12.068Z,101294.69
2022-12-11T21:33:39.382Z,101290.34
2022-12-11T21:36:10.883Z,101283.38
2022-12-11T21:38:39.224Z,101295.63
2022-12-11T21:41:15.744Z,101291.22
2022-12-11T21:44:32.933Z,101283.38
2022-12-11T21:46:32.005Z,101293.81
2022-12-11T21:48:59.958Z,101294.78
2022-12-11T21:51:36.895Z,101296.44
2022-12-11T21:54:07.204Z,101293.88
2022-12-11T21:56:34.634Z,101302.63
2022-12-11T21:59:01.860Z,101300.00
2022-12-11T22:01:34.984Z,101306.13
2022-12-11T22:04:02.861Z,101310.47
2022-12-11T22:06:29.992Z,101307.84
2022-12-11T22:08:57.053Z,101310.47
2022-12-11T22:11:29.356Z,101312.22
2022-12-11T22:13:57.025Z,101317.47
2022-12-11T22:16:24.700Z,101312.13
2022-12-11T22:18:53.005Z,101306.91
2022-12-11T22:21:20.906Z,101307.78
2022-12-11T22:23:48.370Z,101312.94
2022-12-11T22:26:23.176Z,101309.50
2022-12-11T22:28:50.570Z,101312.09
2022-12-11T22:31:21.623Z,101314.75
2022-12-11T22:33:50.258Z,101311.16
2022-12-11T22:36:18.903Z,101310.28
2022-12-11T22:38:46.513Z,101314.72
2022-12-11T22:41:22.406Z,101317.28
2022-12-11T22:43:50.030Z,101318.16
2022-12-11T22:46:20.169Z,101332.19
2022-12-11T22:48:47.345Z,101326.91
2022-12-11T22:51:14.886Z,101329.53
2022-12-11T22:53:42.005Z,101328.66
2022-12-11T22:56:11.614Z,101330.38
2022-12-11T22:58:39.345Z,101320.78
2022-12-11T23:01:16.983Z,101319.06
2022-12-11T23:03:44.219Z,101317.28
2022-12-11T23:06:15.835Z,101321.66
2022-12-11T23:08:43.785Z,101325.06
2022-12-11T23:11:11.930Z,101328.63
2022-12-11T23:13:40.245Z,101325.97
2022-12-11T23:16:09.149Z,101325.97
2022-12-11T23:18:36.455Z,101326.78
2022-12-11T23:21:04.167Z,101321.56
2022-12-11T23:23:31.306Z,101319.88
2022-12-11T23:25:59.143Z,101319.88
2022-12-11T23:28:26.247Z,101318.97
2022-12-11T23:30:53.411Z,101320.69
2022-12-11T23:33:20.520Z,101318.13
2022-12-11T23:35:47.595Z,101323.41
2022-12-11T23:38:16.005Z,101315.53
2022-12-11T23:40:43.094Z,101326.03
2022-12-11T23:43:10.215Z,101319.88
2022-12-11T23:45:37.424Z,101323.34
2022-12-11T23:48:04.591Z,101327.72
2022-12-11T23:50:32.816Z,101326.88
2022-12-11T23:53:00.386Z,101321.59
2022-12-11T23:55:27.670Z,101324.09
2022-12-11T23:57:54.848Z,101319.81
